createdAt,value
2023-05-10T04:00:34.125Z,446.00
2023-05-10T04:01:35.044Z,439.00
2023-05-10T04:02:35.205Z,445.00
2023-05-10T04:03:35.067Z,453.00
2023-05-10T04:04:34.982Z,467.00
2023-05-10T04:05:35.002Z,473.00
2023-05-10T04:06:35.063Z,487.00
2023-05-10T04:07:35.002Z,491.00
2023-05-10T04:08:34.973Z,504.00
2023-05-10T04:09:34.943Z,513.00
2023-05-10T04:10:34.916Z,519.00
2023-05-10T04:11:34.913Z,531.00
2023-05-10T04:12:34.901Z,540.00
2023-05-10T04:13:34.893Z,549.00
2023-05-10T04:14:34.877Z,551.00
2023-05-10T04:15:34.893Z,559.00
2023-05-10T04:16:34.908Z,571.00
2023-05-10T04:17:34.862Z,568.00
2023-05-10T04:18:34.848Z,584.00
2023-05-10T04:19:34.861Z,589.00
2023-05-10T04:20:34.850Z,594.00
2023-05-10T04:21:34.836Z,606.00
2023-05-10T04:22:34.789Z,604.00
2023-05-10T04:23:34.777Z,618.00
2023-05-10T04:24:34.768Z,624.00
2023-05-10T04:25:34.757Z,634.00
2023-05-10T04:26:34.754Z,627.00
2023-05-10T04:27:34.806Z,644.00
2023-05-10T04:28:34.745Z,649.00
2023-05-10T04:29:34.746Z,652.00
2023-05-10T04:30:34.735Z,659.00
2023-05-10T04:31:34.703Z,665.00
2023-05-10T04:32:34.830Z,670.00
2023-05-10T04:33:34.674Z,677.00
2023-05-10T04:34:34.655Z,670.00
2023-05-10T04:35:34.654Z,685.00
2023-05-10T04:36:34.633Z,686.00
2023-05-10T04:37:34.641Z,696.00
2023-05-10T04:38:34.605Z,699.00
2023-05-10T04:39:34.598Z,696.00
2023-05-10T04:40:34.604Z,698.00
2023-05-10T04:41:34.597Z,707.00
2023-05-10T04:42:34.581Z,718.00
2023-05-10T04:43:34.583Z,714.00
2023-05-10T04:44:34.554Z,726.00
2023-05-10T04:45:34.578Z,717.00
2023-05-10T04:46:34.618Z,723.00
2023-05-10T04:47:34.560Z,732.00
2023-05-10T04:48:34.526Z,732.00
2023-05-10T04:49:34.496Z,728.00
2023-05-10T04:50:34.488Z,728.00
2023-05-10T04:51:34.482Z,751.00
2023-05-10T04:52:34.844Z,733.00
2023-05-10T04:53:34.460Z,749.00
2023-05-10T04:54:34.466Z,755.00
2023-05-10T04:55:34.430Z,746.00
2023-05-10T04:56:34.475Z,745.00
2023-05-10T04:57:34.422Z,751.00
2023-05-10T04:58:34.410Z,746.00
2023-05-10T04:59:34.426Z,744.00
2023-05-10T05:00:34.362Z,767.00
2023-05-10T05:01:34.420Z,727.00
2023-05-10T05:02:34.403Z,791.00
2023-05-10T05:03:34.441Z,780.00
2023-05-10T05:04:34.339Z,766.00
2023-05-10T05:05:34.347Z,761.00
2023-05-10T05:06:34.300Z,734.00
2023-05-10T05:07:34.291Z,802.00
2023-05-10T05:08:34.282Z,777.00
2023-05-10T05:09:34.286Z,759.00
2023-05-10T05:10:34.274Z,768.00
2023-05-10T05:11:34.261Z,773.00
2023-05-10T05:12:34.249Z,770.00
2023-05-10T05:13:34.233Z,767.00
2023-05-10T05:14:34.222Z,767.00
2023-05-10T05:15:34.232Z,765.00
2023-05-10T05:16:34.234Z,786.00
2023-05-10T05:17:34.220Z,763.00
2023-05-10T05:18:34.177Z,766.00
2023-05-10T05:19:34.180Z,812.00
2023-05-10T05:20:34.196Z,781.00
2023-05-10T05:21:34.159Z,788.00
2023-05-10T05:22:34.153Z,779.00
2023-05-10T05:23:34.127Z,805.00
2023-05-10T05:24:34.139Z,795.00
2023-05-10T05:25:34.137Z,785.00
2023-05-10T05:26:34.123Z,805.00
2023-05-10T05:27:34.099Z,734.00
2023-05-10T05:28:34.154Z,835.00
2023-05-10T05:29:34.128Z,809.00
2023-05-10T05:30:34.073Z,767.00
2023-05-10T05:31:34.113Z,801.00
2023-05-10T05:32:34.111Z,809.00
2023-05-10T05:33:34.020Z,842.00
2023-05-10T05:34:34.963Z,803.00
2023-05-10T05:35:34.049Z,809.00
2023-05-10T05:36:35.345Z,812.00
2023-05-10T05:37:33.976Z,747.00
2023-05-10T05:38:33.961Z,829.00
2023-05-10T05:39:33.994Z,838.00
2023-05-10T05:40:34.118Z,805.00
2023-05-10T05:41:33.922Z,810.00
2023-05-10T05:42:33.924Z,762.00
2023-05-10T05:43:36.705Z,818.00
2023-05-10T05:44:33.904Z,846.00
2023-05-10T05:45:33.979Z,819.00
2023-05-10T05:46:34.612Z,756.00
2023-05-10T05:47:34.057Z,846.00
2023-05-10T05:48:33.870Z,778.00
2023-05-10T05:49:34.109Z,889.00
2023-05-10T05:50:33.858Z,838.00
2023-05-10T05:51:33.827Z,836.00
2023-05-10T05:52:33.836Z,850.00
2023-05-10T05:53:33.794Z,873.00
2023-05-10T05:54:33.808Z,833.00
2023-05-10T05:55:33.799Z,809.00
2023-05-10T05:56:33.764Z,873.00
2023-05-10T05:57:33.771Z,963.00
2023-05-10T05:58:33.743Z,860.00
2023-05-10T05:59:33.750Z,895.00
2023-05-10T06:00:33.723Z,943.00
2023-05-10T06:01:33.716Z,898.00
2023-05-10T06:02:33.779Z,928.00
2023-05-10T06:03:33.758Z,951.00
2023-05-10T06:04:33.708Z,919.00
2023-05-10T06:05:33.677Z,940.00
2023-05-10T06:06:33.708Z,997.00
2023-05-10T06:07:33.762Z,972.00
2023-05-10T06:08:33.953Z,948.00
2023-05-10T06:09:33.906Z,973.00
2023-05-10T06:10:33.629Z,969.00
2023-05-10T06:11:34.031Z,1019.00
2023-05-10T06:12:33.597Z,1021.00
2023-05-10T06:13:33.840Z,1008.00
2023-05-10T06:14:33.594Z,1003.00
2023-05-10T06:15:33.606Z,1023.00
2023-05-10T06:16:33.586Z,1003.00
2023-05-10T06:17:33.596Z,1008.00
2023-05-10T06:18:33.533Z,1005.00
2023-05-10T06:19:33.514Z,1020.00
2023-05-10T06:20:33.512Z,1024.00
2023-05-10T06:21:33.489Z,1004.00
2023-05-10T06:22:33.488Z,1016.00
2023-05-10T06:23:33.477Z,1073.00
2023-05-10T06:24:33.496Z,1052.00
2023-05-10T06:25:33.442Z,1049.00
2023-05-10T06:26:33.436Z,1085.00
2023-05-10T06:27:33.428Z,1064.00
2023-05-10T06:28:33.423Z,1080.00
2023-05-10T06:29:33.419Z,1116.00
2023-05-10T06:30:33.412Z,1057.00
2023-05-10T06:31:33.415Z,1130.00
2023-05-10T06:32:33.401Z,1171.00
2023-05-10T06:33:33.365Z,1140.00
2023-05-10T06:34:33.362Z,1160.00
2023-05-10T06:35:33.334Z,1144.00
2023-05-10T06:36:33.350Z,1225.00
2023-05-10T06:37:33.314Z,1205.00
2023-05-10T06:38:33.307Z,1141.00
2023-05-10T06:39:33.290Z,1272.00
2023-05-10T06:40:33.288Z,1213.00
2023-05-10T06:41:33.309Z,1234.00
2023-05-10T06:42:33.290Z,1251.00
2023-05-10T06:43:33.285Z,1277.00
2023-05-10T06:44:33.252Z,1304.00
2023-05-10T06:45:33.225Z,1277.00
2023-05-10T06:46:33.260Z,1322.00
2023-05-10T06:47:33.278Z,1325.00
2023-05-10T06:48:33.217Z,1332.00
2023-05-10T06:49:33.210Z,1345.00
2023-05-10T06:50:33.200Z,1358.00
2023-05-10T06:51:33.162Z,1366.00
2023-05-10T06:52:33.170Z,1411.00
2023-05-10T06:53:33.557Z,1467.00
2023-05-10T06:54:33.140Z,1423.00
2023-05-10T06:55:33.137Z,1464.00
2023-05-10T06:56:33.117Z,1527.00
2023-05-10T06:57:33.090Z,1487.00
2023-05-10T06:58:33.118Z,1515.00
2023-05-10T06:59:33.133Z,1595.00
2023-05-10T07:00:33.097Z,1627.00
2023-05-10T07:01:33.079Z,1640.00
2023-05-10T07:02:33.163Z,1626.00
2023-05-10T07:03:33.047Z,1691.00
2023-05-10T07:04:33.073Z,1660.00
2023-05-10T07:05:33.152Z,1682.00
2023-05-10T07:06:33.934Z,1716.00
2023-05-10T07:07:32.985Z,1757.00
2023-05-10T07:08:33.021Z,1780.00
2023-05-10T07:09:33.147Z,1767.00
2023-05-10T07:10:32.968Z,1792.00
2023-05-10T07:11:32.970Z,1837.00
2023-05-10T07:12:32.971Z,1833.00
2023-05-10T07:13:33.071Z,1818.00
2023-05-10T07:14:32.993Z,1955.00
2023-05-10T07:15:32.922Z,1933.00
2023-05-10T07:16:33.001Z,1945.00
2023-05-10T07:17:32.991Z,2057.00
2023-05-10T07:18:32.968Z,2006.00
2023-05-10T07:19:32.876Z,2021.00
2023-05-10T07:20:32.882Z,1982.00
2023-05-10T07:21:32.892Z,2080.00
2023-05-10T07:22:32.825Z,2050.00
2023-05-10T07:23:32.851Z,2156.00
2023-05-10T07:24:32.853Z,2120.00
2023-05-10T07:25:32.799Z,2149.00
2023-05-10T07:26:32.790Z,2143.00
2023-05-10T07:27:32.780Z,2212.00
2023-05-10T07:28:32.778Z,2182.00
2023-05-10T07:29:32.762Z,2235.00
2023-05-10T07:30:32.853Z,2275.00
2023-05-10T07:31:32.821Z,2240.00
2023-05-10T07:32:32.886Z,2279.00
2023-05-10T07:33:32.785Z,2234.00
2023-05-10T07:34:32.711Z,2459.00
2023-05-10T07:35:32.690Z,2420.00
2023-05-10T07:36:32.682Z,2364.00
2023-05-10T07:37:32.676Z,2318.00
2023-05-10T07:38:32.685Z,2347.00
2023-05-10T07:39:32.644Z,2357.00
2023-05-10T07:40:32.648Z,2397.00
2023-05-10T07:41:33.913Z,2287.00
2023-05-10T07:42:32.663Z,2453.00
2023-05-10T07:43:32.610Z,2323.00
2023-05-10T07:44:32.605Z,2419.00
2023-05-10T07:45:32.639Z,2417.00
2023-05-10T07:46:32.561Z,2453.00
2023-05-10T07:47:32.567Z,2430.00
2023-05-10T07:48:32.543Z,2514.00
2023-05-10T07:49:32.536Z,2423.00
2023-05-10T07:50:32.527Z,2435.00
2023-05-10T07:51:32.514Z,2477.00
2023-05-10T07:52:32.497Z,2431.00
2023-05-10T07:53:32.531Z,2410.00
2023-05-10T07:54:32.486Z,2454.00
2023-05-10T07:55:32.477Z,2457.00
2023-05-10T07:56:32.454Z,2436.00
2023-05-10T07:57:32.450Z,2461.00
2023-05-10T07:58:32.431Z,2529.00
2023-05-10T07:59:32.424Z,2431.00
2023-05-10T08:00:32.437Z,2587.00
2023-05-10T08:01:32.395Z,2482.00
2023-05-10T08:02:32.499Z,2634.00
2023-05-10T08:03:32.492Z,2685.00
2023-05-10T08:04:32.365Z,2543.00
2023-05-10T08:05:34.634Z,2655.00
2023-05-10T08:06:32.339Z,2634.00
2023-05-10T08:07:32.336Z,2564.00
2023-05-10T08:08:32.360Z,2769.00
2023-05-10T08:09:32.326Z,2479.00
2023-05-10T08:10:32.302Z,2743.00
2023-05-10T08:11:34.358Z,2629.00
2023-05-10T08:12:32.296Z,2619.00
2023-05-10T08:13:32.274Z,2726.00
2023-05-10T08:14:32.244Z,2718.00
2023-05-10T08:15:32.249Z,2781.00
2023-05-10T08:16:32.381Z,2681.00
2023-05-10T08:17:32.267Z,2656.00
2023-05-10T08:18:32.221Z,2739.00
2023-05-10T08:19:32.201Z,2783.00
2023-05-10T08:20:32.225Z,2741.00
2023-05-10T08:21:32.213Z,2702.00
2023-05-10T08:22:32.172Z,2768.00
2023-05-10T08:23:32.155Z,2755.00
2023-05-10T08:24:32.143Z,2747.00
2023-05-10T08:25:32.126Z,2681.00
2023-05-10T08:26:32.130Z,2730.00
2023-05-10T08:27:32.116Z,2732.00
2023-05-10T08:28:32.098Z,2673.00
2023-05-10T08:29:38.657Z,2699.00
2023-05-10T08:30:32.092Z,2793.00
2023-05-10T08:31:32.117Z,2737.00
2023-05-10T08:32:32.066Z,2793.00
2023-05-10T08:33:32.053Z,2753.00
2023-05-10T08:34:32.031Z,2703.00
2023-05-10T08:35:32.045Z,2796.00
2023-05-10T08:36:32.042Z,2731.00
2023-05-10T08:37:32.011Z,2805.00
2023-05-10T08:38:32.010Z,2755.00
2023-05-10T08:39:32.016Z,2767.00
2023-05-10T08:40:32.049Z,2786.00
2023-05-10T08:41:31.966Z,2864.00
2023-05-10T08:42:31.982Z,2848.00
2023-05-10T08:43:31.942Z,2911.00
2023-05-10T08:44:31.919Z,2894.00
2023-05-10T08:45:31.907Z,2913.00
2023-05-10T08:46:31.938Z,2961.00
2023-05-10T08:47:31.947Z,2874.00
2023-05-10T08:48:31.903Z,2898.00
2023-05-10T08:49:31.881Z,3118.00
2023-05-10T08:50:31.872Z,2949.00
2023-05-10T08:51:31.855Z,3027.00
2023-05-10T08:52:31.860Z,3076.00
2023-05-10T08:53:31.859Z,3058.00
2023-05-10T08:54:31.831Z,3107.00
2023-05-10T08:55:31.806Z,3175.00
2023-05-10T08:56:31.878Z,3286.00
2023-05-10T08:57:31.788Z,3143.00
2023-05-10T08:58:31.994Z,3254.00
2023-05-10T08:59:31.951Z,3507.00
2023-05-10T09:00:31.785Z,3421.00
2023-05-10T09:01:31.958Z,3643.00
2023-05-10T09:02:31.742Z,3392.00
2023-05-10T09:03:31.735Z,3749.00
2023-05-10T09:04:31.873Z,3682.00
2023-05-10T09:05:31.741Z,3757.00
2023-05-10T09:06:31.692Z,3700.00
2023-05-10T09:07:31.701Z,3872.00
2023-05-10T09:08:31.712Z,3784.00
2023-05-10T09:09:31.658Z,3892.00
2023-05-10T09:10:31.633Z,3892.00
2023-05-10T09:11:31.727Z,3971.00
2023-05-10T09:12:31.621Z,3675.00
2023-05-10T09:13:31.929Z,4185.00
2023-05-10T09:14:31.637Z,4078.00
2023-05-10T09:15:31.596Z,4251.00
2023-05-10T09:16:31.646Z,3825.00
2023-05-10T09:17:31.593Z,3960.00
2023-05-10T09:18:31.634Z,4242.00
2023-05-10T09:19:31.683Z,4050.00
2023-05-10T09:20:31.568Z,4211.00
2023-05-10T09:21:31.517Z,4200.00
2023-05-10T09:22:31.521Z,4215.00
2023-05-10T09:23:31.517Z,4131.00
2023-05-10T09:24:31.490Z,4204.00
2023-05-10T09:25:31.473Z,3956.00
2023-05-10T09:26:31.461Z,4003.00
2023-05-10T09:27:31.466Z,3994.00
2023-05-10T09:28:31.438Z,3917.00
2023-05-10T09:29:31.441Z,4020.00
2023-05-10T09:30:31.469Z,3835.00
2023-05-10T09:31:31.464Z,3821.00
2023-05-10T09:32:31.413Z,3772.00
2023-05-10T09:33:31.403Z,3880.00
2023-05-10T09:34:31.460Z,3955.00
2023-05-10T09:35:31.399Z,3886.00
2023-05-10T09:36:31.352Z,3881.00
2023-05-10T09:37:31.350Z,3953.00
2023-05-10T09:38:31.333Z,3824.00
2023-05-10T09:39:31.390Z,3993.00
2023-05-10T09:40:31.320Z,3900.00
2023-05-10T09:41:31.296Z,3943.00
2023-05-10T09:42:31.298Z,3974.00
2023-05-10T09:43:31.292Z,3836.00
2023-05-10T09:44:31.284Z,4157.00
2023-05-10T09:45:31.268Z,4076.00
2023-05-10T09:46:31.358Z,3968.00
2023-05-10T09:47:31.362Z,4036.00
2023-05-10T09:48:31.231Z,4069.00
2023-05-10T09:49:31.224Z,3952.00
2023-05-10T09:50:31.201Z,3989.00
2023-05-10T09:51:31.216Z,4101.00
2023-05-10T09:52:31.216Z,4193.00
2023-05-10T09:53:31.194Z,4042.00
2023-05-10T09:54:31.195Z,4275.00
2023-05-10T09:55:31.164Z,4081.00
2023-05-10T09:56:31.148Z,4213.00
2023-05-10T09:57:32.364Z,4204.00
2023-05-10T09:58:31.155Z,4302.00
2023-05-10T09:59:31.480Z,4383.00
2023-05-10T10:00:31.107Z,4214.00
2023-05-10T10:01:31.194Z,4354.00
2023-05-10T10:02:31.153Z,4410.00
2023-05-10T10:03:31.086Z,4411.00
2023-05-10T10:04:31.185Z,4407.00
2023-05-10T10:05:31.087Z,4503.00
2023-05-10T10:06:31.031Z,4622.00
2023-05-10T10:07:31.058Z,4548.00
2023-05-10T10:08:31.026Z,4730.00
2023-05-10T10:09:31.069Z,4684.00
2023-05-10T10:10:31.007Z,4752.00
2023-05-10T10:11:31.001Z,4855.00
2023-05-10T10:12:30.991Z,4889.00
2023-05-10T10:13:31.011Z,4949.00
2023-05-10T10:14:30.994Z,5036.00
2023-05-10T10:15:30.943Z,5124.00
2023-05-10T10:16:31.030Z,5099.00
2023-05-10T10:17:30.937Z,5196.00
2023-05-10T10:18:30.933Z,5331.00
2023-05-10T10:19:30.902Z,5363.00
2023-05-10T10:20:30.891Z,5368.00
2023-05-10T10:21:30.876Z,5501.00
2023-05-10T10:22:30.881Z,5506.00
2023-05-10T10:23:30.894Z,5506.00
2023-05-10T10:24:30.871Z,5661.00
2023-05-10T10:25:30.880Z,5849.00
2023-05-10T10:26:30.843Z,5782.00
2023-05-10T10:27:30.840Z,5877.00
2023-05-10T10:28:30.816Z,5825.00
2023-05-10T10:29:30.782Z,5845.00
2023-05-10T10:30:30.796Z,6109.00
2023-05-10T10:31:30.886Z,6304.00
2023-05-10T10:32:30.822Z,6269.00
2023-05-10T10:33:30.755Z,6429.00
2023-05-10T10:34:30.774Z,6528.00
2023-05-10T10:35:30.729Z,5955.00
2023-05-10T10:36:30.747Z,6566.00
2023-05-10T10:37:30.778Z,6566.00
2023-05-10T10:38:30.702Z,6684.00
2023-05-10T10:39:30.711Z,6685.00
2023-05-10T10:40:33.605Z,6922.00
2023-05-10T10:41:30.682Z,6817.00
2023-05-10T10:42:30.689Z,6907.00
2023-05-10T10:43:30.670Z,6826.00
2023-05-10T10:44:30.648Z,7026.00
2023-05-10T10:45:30.659Z,6936.00
2023-05-10T10:46:30.641Z,7013.00
2023-05-10T10:47:30.662Z,6946.00
2023-05-10T10:48:30.598Z,7037.00
2023-05-10T10:49:30.580Z,6948.00
2023-05-10T10:50:30.591Z,7021.00
2023-05-10T10:51:30.608Z,7048.00
2023-05-10T10:52:30.578Z,7006.00
2023-05-10T10:53:30.632Z,7035.00
2023-05-10T10:54:30.519Z,7118.00
2023-05-10T10:55:30.539Z,7177.00
2023-05-10T10:56:30.508Z,7100.00
2023-05-10T10:57:30.510Z,7002.00
2023-05-10T10:58:30.496Z,7196.00
2023-05-10T10:59:30.467Z,7069.00
2023-05-10T11:00:30.461Z,7102.00
2023-05-10T11:01:30.543Z,7154.00
2023-05-10T11:02:31.327Z,7111.00
2023-05-10T11:03:30.446Z,7158.00
2023-05-10T11:04:30.468Z,7165.00
2023-05-10T11:05:30.409Z,7105.00
2023-05-10T11:06:30.446Z,7149.00
2023-05-10T11:07:30.415Z,7218.00
2023-05-10T11:08:30.419Z,7143.00
2023-05-10T11:09:30.350Z,7165.00
2023-05-10T11:10:30.340Z,7187.00
2023-05-10T11:11:30.349Z,7071.00
2023-05-10T11:12:30.324Z,7171.00
2023-05-10T11:13:30.311Z,7078.00
2023-05-10T11:14:30.318Z,7124.00
2023-05-10T11:15:30.303Z,7117.00
2023-05-10T11:16:30.332Z,7210.00
2023-05-10T11:17:30.476Z,7081.00
2023-05-10T11:18:30.326Z,7128.00
2023-05-10T11:19:30.268Z,7195.00
2023-05-10T11:20:30.238Z,7170.00
2023-05-10T11:21:30.285Z,7204.00
2023-05-10T11:22:30.248Z,7125.00
2023-05-10T11:23:30.220Z,7016.00
2023-05-10T11:24:30.180Z,7108.00
2023-05-10T11:25:30.190Z,7160.00
2023-05-10T11:26:30.194Z,7213.00
2023-05-10T11:27:30.207Z,7172.00
2023-05-10T11:28:30.190Z,7200.00
2023-05-10T11:29:30.142Z,7179.00
2023-05-10T11:30:30.180Z,7294.00
2023-05-10T11:31:30.539Z,7265.00
2023-05-10T11:32:30.162Z,7137.00
2023-05-10T11:33:30.106Z,7230.00
2023-05-10T11:34:30.171Z,7188.00
2023-05-10T11:35:30.084Z,7349.00
2023-05-10T11:36:30.144Z,7257.00
2023-05-10T11:37:30.084Z,7281.00
2023-05-10T11:38:30.094Z,7247.00
2023-05-10T11:39:30.037Z,7263.00
2023-05-10T11:40:30.088Z,7260.00
2023-05-10T11:41:30.028Z,7344.00
2023-05-10T11:42:30.028Z,7273.00
2023-05-10T11:43:30.315Z,7354.00
2023-05-10T11:44:29.985Z,7362.00
2023-05-10T11:45:30.027Z,7380.00
2023-05-10T11:46:30.024Z,7371.00
2023-05-10T11:47:29.985Z,7500.00
2023-05-10T11:48:29.945Z,7495.00
2023-05-10T11:49:29.968Z,7465.00
2023-05-10T11:50:30.061Z,7534.00
2023-05-10T11:51:29.941Z,7618.00
2023-05-10T11:52:30.049Z,7684.00
2023-05-10T11:53:29.915Z,7646.00
2023-05-10T11:54:29.897Z,7805.00
2023-05-10T11:55:29.866Z,7816.00
2023-05-10T11:56:29.845Z,7827.00
2023-05-10T11:57:30.002Z,7941.00
2023-05-10T11:58:29.839Z,8079.00
2023-05-10T11:59:29.820Z,8215.00
2023-05-10T12:00:29.848Z,8381.00
2023-05-10T12:01:29.784Z,8437.00
2023-05-10T12:02:29.862Z,8535.00
2023-05-10T12:03:30.036Z,8375.00
2023-05-10T12:04:29.800Z,8411.00
2023-05-10T12:05:29.856Z,8358.00
2023-05-10T12:06:29.846Z,8837.00
2023-05-10T12:07:29.774Z,9859.00
2023-05-10T12:08:29.764Z,10454.00
2023-05-10T12:09:42.579Z,10474.00
2023-05-10T12:10:29.707Z,9921.00
2023-05-10T12:11:29.715Z,9545.00
2023-05-10T12:12:29.688Z,9810.00
2023-05-10T12:13:29.723Z,10367.00
2023-05-10T12:14:29.848Z,10345.00
2023-05-10T12:15:29.730Z,10663.00
2023-05-10T12:16:29.724Z,10220.00
2023-05-10T12:17:29.700Z,10676.00
2023-05-10T12:18:29.669Z,11251.00
2023-05-10T12:19:29.608Z,10695.00
2023-05-10T12:20:29.592Z,10874.00
2023-05-10T12:21:29.577Z,10524.00
2023-05-10T12:22:29.584Z,10564.00
2023-05-10T12:23:29.570Z,11760.00
2023-05-10T12:24:29.538Z,11326.00
2023-05-10T12:25:29.662Z,11301.00
2023-05-10T12:26:29.553Z,11351.00
2023-05-10T12:27:29.532Z,11904.00
2023-05-10T12:28:29.532Z,12418.00
2023-05-10T12:29:29.491Z,12232.00
2023-05-10T12:30:29.514Z,12491.00
2023-05-10T12:31:29.581Z,12621.00
2023-05-10T12:32:29.523Z,11711.00
2023-05-10T12:33:29.460Z,13591.00
2023-05-10T12:34:29.504Z,13403.00
2023-05-10T12:35:29.432Z,13289.00
2023-05-10T12:36:29.440Z,13956.00
2023-05-10T12:37:29.473Z,13701.00
2023-05-10T12:38:29.422Z,15076.00
2023-05-10T12:39:29.400Z,14958.00
2023-05-10T12:40:29.412Z,13733.00
2023-05-10T12:41:29.373Z,13691.00
2023-05-10T12:42:29.394Z,15616.00
2023-05-10T12:43:29.374Z,15566.00
2023-05-10T12:44:29.350Z,15464.00
2023-05-10T12:45:29.358Z,17464.00
2023-05-10T12:46:29.430Z,16501.00
2023-05-10T12:47:29.333Z,14361.00
2023-05-10T12:48:29.383Z,16142.00
2023-05-10T12:49:29.346Z,15783.00
2023-05-10T12:50:29.296Z,16215.00
2023-05-10T12:51:29.289Z,18624.00
2023-05-10T12:52:29.272Z,17944.00
2023-05-10T12:53:29.250Z,18325.00
2023-05-10T12:54:29.234Z,18752.00
2023-05-10T12:55:29.260Z,19557.00
2023-05-10T12:56:29.303Z,19312.00
2023-05-10T12:57:29.232Z,18842.00
2023-05-10T12:58:35.506Z,22881.00
2023-05-10T12:59:29.191Z,18118.00
2023-05-10T13:00:29.193Z,3461.00
2023-05-10T13:01:29.237Z,23638.00
2023-05-10T13:02:29.274Z,23853.00
2023-05-10T13:03:29.163Z,21700.00
2023-05-10T13:04:29.173Z,21245.00
2023-05-10T13:05:29.196Z,19143.00
2023-05-10T13:06:29.169Z,21615.00
2023-05-10T13:07:29.115Z,24099.00
2023-05-10T13:08:29.113Z,23362.00
2023-05-10T13:09:29.097Z,26458.00
2023-05-10T13:10:29.167Z,21568.00
2023-05-10T13:11:29.096Z,22848.00
2023-05-10T13:12:29.053Z,25661.00
2023-05-10T13:13:29.162Z,27600.00
2023-05-10T13:14:29.066Z,28822.00
2023-05-10T13:15:29.062Z,27952.00
2023-05-10T13:16:29.088Z,29904.00
2023-05-10T13:17:29.036Z,30623.00
2023-05-10T13:18:29.074Z,29099.00
2023-05-10T13:19:29.011Z,26063.00
2023-05-10T13:20:29.089Z,23473.00
2023-05-10T13:21:28.987Z,24701.00
2023-05-10T13:22:39.900Z,30160.00
2023-05-10T13:23:28.978Z,30559.00
2023-05-10T13:24:28.954Z,26072.00
2023-05-10T13:25:28.949Z,29804.00
2023-05-10T13:26:28.934Z,35156.00
2023-05-10T13:27:28.970Z,30915.00
2023-05-10T13:28:28.982Z,27842.00
2023-05-10T13:29:28.929Z,31889.00
2023-05-10T13:30:28.855Z,35262.00
2023-05-10T13:31:28.971Z,34788.00
2023-05-10T13:32:28.898Z,33939.00
2023-05-10T13:33:28.855Z,34640.00
2023-05-10T13:34:28.859Z,32618.00
2023-05-10T13:35:28.914Z,29316.00
2023-05-10T13:36:28.817Z,31714.00
2023-05-10T13:37:28.843Z,34924.00
2023-05-10T13:38:28.791Z,74407.00
2023-05-10T13:39:28.815Z,74439.00
2023-05-10T13:40:28.758Z,73506.00
2023-05-10T13:41:28.786Z,72800.00
2023-05-10T13:42:28.757Z,32467.00
2023-05-10T13:43:28.750Z,72333.00
2023-05-10T13:44:28.859Z,68617.00
2023-05-10T13:45:28.755Z,19647.00
2023-05-10T13:46:28.902Z,58153.00
2023-05-10T13:47:28.816Z,7538.00
2023-05-10T13:48:28.734Z,5693.00
2023-05-10T13:49:28.685Z,2274.00
2023-05-10T13:50:28.680Z,6770.00
2023-05-10T13:51:28.740Z,26792.00
2023-05-10T13:52:28.657Z,75000.00
2023-05-10T13:53:28.663Z,74805.00
2023-05-10T13:54:28.629Z,73629.00
2023-05-10T13:55:28.659Z,74668.00
2023-05-10T13:56:28.632Z,73761.00
2023-05-10T13:57:28.637Z,73382.00
2023-05-10T13:58:28.588Z,73525.00
2023-05-10T13:59:28.584Z,74415.00
2023-05-10T14:00:28.642Z,75072.00
2023-05-10T14:01:28.748Z,74107.00
2023-05-10T14:02:28.676Z,73301.00
2023-05-10T14:03:28.710Z,74573.00
2023-05-10T14:04:28.542Z,75644.00
2023-05-10T14:05:28.864Z,74136.00
2023-05-10T14:06:28.957Z,74605.00
2023-05-10T14:07:28.513Z,76461.00
2023-05-10T14:08:28.515Z,76565.00
2023-05-10T14:09:28.506Z,76535.00
2023-05-10T14:10:28.480Z,75917.00
2023-05-10T14:11:28.515Z,75163.00
2023-05-10T14:12:28.790Z,76216.00
2023-05-10T14:13:28.470Z,76591.00
2023-05-10T14:14:28.460Z,75746.00
2023-05-10T14:15:29.545Z,70189.00
2023-05-10T14:16:28.548Z,25468.00
2023-05-10T14:17:28.588Z,7315.00
2023-05-10T14:18:28.518Z,9125.00
2023-05-10T14:19:28.434Z,6019.00
2023-05-10T14:20:28.403Z,5773.00
2023-05-10T14:21:28.372Z,5272.00
2023-05-10T14:22:28.384Z,77709.00
2023-05-10T14:23:28.360Z,76492.00
2023-05-10T14:24:28.365Z,76729.00
2023-05-10T14:25:28.350Z,76900.00
2023-05-10T14:26:28.308Z,59404.00
2023-05-10T14:27:28.312Z,3445.00
2023-05-10T14:28:28.372Z,12196.00
2023-05-10T14:29:28.321Z,19548.00
2023-05-10T14:30:28.297Z,75162.00
2023-05-10T14:31:28.307Z,74777.00
2023-05-10T14:32:28.384Z,74739.00
2023-05-10T14:33:28.271Z,75467.00
2023-05-10T14:34:28.356Z,77382.00
2023-05-10T14:35:28.211Z,78807.00
2023-05-10T14:36:28.246Z,78679.00
2023-05-10T14:37:28.211Z,78574.00
2023-05-10T14:38:28.189Z,78057.00
2023-05-10T14:39:28.175Z,78354.00
2023-05-10T14:40:28.193Z,74496.00
2023-05-10T14:41:28.180Z,58561.00
2023-05-10T14:42:28.256Z,6155.00
2023-05-10T14:43:28.166Z,76107.00
2023-05-10T14:44:28.152Z,59521.00
2023-05-10T14:45:28.174Z,7330.00
2023-05-10T14:46:28.178Z,10857.00
2023-05-10T14:47:28.141Z,6422.00
2023-05-10T14:48:28.086Z,5244.00
2023-05-10T14:49:28.091Z,4742.00
2023-05-10T14:50:36.483Z,2450.00
2023-05-10T14:51:28.100Z,15753.00
2023-05-10T14:52:28.044Z,27159.00
2023-05-10T14:53:28.029Z,36708.00
2023-05-10T14:54:28.043Z,23906.00
2023-05-10T14:55:28.015Z,75389.00
2023-05-10T14:56:28.025Z,71148.00
2023-05-10T14:57:28.011Z,26447.00
2023-05-10T14:58:27.993Z,25774.00
2023-05-10T14:59:28.001Z,70701.00
2023-05-10T15:00:27.998Z,29346.00
2023-05-10T15:01:27.988Z,76848.00
2023-05-10T15:02:27.968Z,78345.00
2023-05-10T15:03:27.991Z,77272.00
2023-05-10T15:04:28.849Z,76824.00
2023-05-10T15:05:27.936Z,75895.00
2023-05-10T15:06:27.951Z,75605.00
2023-05-10T15:07:27.892Z,75572.00
2023-05-10T15:08:27.927Z,75734.00
2023-05-10T15:09:27.858Z,75363.00
2023-05-10T15:10:27.864Z,75444.00
2023-05-10T15:11:27.949Z,75968.00
2023-05-10T15:12:27.860Z,76087.00
2023-05-10T15:13:27.898Z,75654.00
2023-05-10T15:14:27.843Z,70059.00
2023-05-10T15:15:27.818Z,27217.00
2023-05-10T15:16:27.884Z,10942.00
2023-05-10T15:17:27.856Z,78875.00
2023-05-10T15:18:27.816Z,75706.00
2023-05-10T15:19:27.775Z,58339.00
2023-05-10T15:20:27.791Z,5122.00
2023-05-10T15:21:27.738Z,3652.00
2023-05-10T15:22:27.758Z,3304.00
2023-05-10T15:23:27.889Z,3295.00
2023-05-10T15:24:27.718Z,3335.00
2023-05-10T15:25:27.742Z,3900.00
2023-05-10T15:26:27.698Z,3192.00
2023-05-10T15:27:27.683Z,8566.00
2023-05-10T15:28:27.710Z,5479.00
2023-05-10T15:29:27.676Z,4039.00
2023-05-10T15:30:27.664Z,23235.00
2023-05-10T15:31:27.704Z,74118.00
2023-05-10T15:32:27.692Z,22082.00
2023-05-10T15:33:27.744Z,70934.00
2023-05-10T15:34:29.166Z,20407.00
2023-05-10T15:35:27.602Z,75223.00
2023-05-10T15:36:27.728Z,66109.00
2023-05-10T15:37:27.576Z,6901.00
2023-05-10T15:38:27.589Z,66254.00
2023-05-10T15:39:27.564Z,20426.00
2023-05-10T15:40:27.567Z,4473.00
2023-05-10T15:41:27.563Z,75810.00
2023-05-10T15:42:27.538Z,75047.00
2023-05-10T15:43:27.507Z,29368.00
2023-05-10T15:44:27.528Z,30933.00
2023-05-10T15:45:27.500Z,27862.00
2023-05-10T15:46:27.512Z,6025.00
2023-05-10T15:47:27.554Z,4151.00
2023-05-10T15:48:27.478Z,3644.00
2023-05-10T15:49:27.466Z,3400.00
2023-05-10T15:50:27.476Z,1905.00
2023-05-10T15:51:27.455Z,76496.00
2023-05-10T15:52:27.467Z,75587.00
2023-05-10T15:53:27.414Z,71349.00
2023-05-10T15:54:27.435Z,26418.00
2023-05-10T15:55:27.418Z,2799.00
2023-05-10T15:56:27.382Z,15098.00
2023-05-10T15:57:27.380Z,5457.00
2023-05-10T15:58:27.409Z,2335.00
2023-05-10T15:59:27.357Z,2235.00
2023-05-10T16:00:27.365Z,2184.00
2023-05-10T16:01:27.471Z,2623.00
2023-05-10T16:02:27.402Z,2829.00
2023-05-10T16:03:27.342Z,4780.00